sensor_id;sensor_type;location;lat;lon;timestamp;P1;durP1;ratioP1;P2;durP2;ratioP2
10082;SDS011;5080;48.528;8.078;2023-07-31T00:01:17;10.75;;;10.35;;
10082;SDS011;5080;48.528;8.078;2023-07-31T00:03:45;10.70;;;10.30;;
10082;SDS011;5080;48.528;8.078;2023-07-31T00:06:12;10.73;;;10.33;;
10082;SDS011;5080;48.528;8.078;2023-07-31T00:08:38;10.17;;;9.83;;
10082;SDS011;5080;48.528;8.078;2023-07-31T00:11:07;13.80;;;13.30;;
10082;SDS011;5080;48.528;8.078;2023-07-31T00:13:33;10.17;;;9.87;;
10082;SDS011;5080;48.528;8.078;2023-07-31T00:16:00;13.07;;;12.57;;
10082;SDS011;5080;48.528;8.078;2023-07-31T00:18:28;10.80;;;10.40;;
10082;SDS011;5080;48.528;8.078;2023-07-31T00:20:54;12.63;;;12.10;;
10082;SDS011;5080;48.528;8.078;2023-07-31T00:23:21;9.53;;;9.13;;
10082;SDS011;5080;48.528;8.078;2023-07-31T00:25:48;9.60;;;9.30;;
10082;SDS011;5080;48.528;8.078;2023-07-31T00:28:16;9.37;;;9.07;;
10082;SDS011;5080;48.528;8.078;2023-07-31T00:30:43;9.63;;;9.20;;
10082;SDS011;5080;48.528;8.078;2023-07-31T00:33:10;10.07;;;9.67;;
10082;SDS011;5080;48.528;8.078;2023-07-31T00:35:37;10.13;;;9.73;;
10082;SDS011;5080;48.528;8.078;2023-07-31T00:38:03;10.30;;;10.00;;
10082;SDS011;5080;48.528;8.078;2023-07-31T00:40:34;12.50;;;12.00;;
10082;SDS011;5080;48.528;8.078;2023-07-31T00:43:01;9.50;;;9.20;;
10082;SDS011;5080;48.528;8.078;2023-07-31T00:45:29;10.50;;;10.10;;
10082;SDS011;5080;48.528;8.078;2023-07-31T00:47:57;10.03;;;9.63;;
10082;SDS011;5080;48.528;8.078;2023-07-31T00:50:24;9.40;;;9.10;;
10082;SDS011;5080;48.528;8.078;2023-07-31T00:52:51;9.93;;;9.53;;
10082;SDS011;5080;48.528;8.078;2023-07-31T00:55:18;10.23;;;9.83;;
10082;SDS011;5080;48.528;8.078;2023-07-31T00:57:46;10.37;;;9.97;;
10082;SDS011;5080;48.528;8.078;2023-07-31T01:00:14;9.77;;;9.40;;
10082;SDS011;5080;48.528;8.078;2023-07-31T01:02:43;10.47;;;10.07;;
10082;SDS011;5080;48.528;8.078;2023-07-31T01:05:10;9.63;;;9.33;;
10082;SDS011;5080;48.528;8.078;2023-07-31T01:07:39;10.20;;;9.80;;
10082;SDS011;5080;48.528;8.078;2023-07-31T01:10:16;10.20;;;9.90;;
10082;SDS011;5080;48.528;8.078;2023-07-31T01:12:46;10.93;;;10.53;;
10082;SDS011;5080;48.528;8.078;2023-07-31T01:15:14;9.47;;;9.17;;
10082;SDS011;5080;48.528;8.078;2023-07-31T01:17:44;10.43;;;10.03;;
10082;SDS011;5080;48.528;8.078;2023-07-31T01:20:11;10.70;;;10.30;;
10082;SDS011;5080;48.528;8.078;2023-07-31T01:22:49;9.73;;;9.33;;
10082;SDS011;5080;48.528;8.078;2023-07-31T01:28:23;9.63;;;9.33;;
10082;SDS011;5080;48.528;8.078;2023-07-31T01:30:55;9.90;;;9.53;;
10082;SDS011;5080;48.528;8.078;2023-07-31T01:33:25;9.83;;;9.43;;
10082;SDS011;5080;48.528;8.078;2023-07-31T01:35:52;9.17;;;8.87;;
10082;SDS011;5080;48.528;8.078;2023-07-31T01:38:20;9.27;;;8.97;;
10082;SDS011;5080;48.528;8.078;2023-07-31T01:40:50;9.63;;;9.33;;
10082;SDS011;5080;48.528;8.078;2023-07-31T01:43:19;9.50;;;9.20;;
10082;SDS011;5080;48.528;8.078;2023-07-31T01:45:46;10.40;;;10.00;;
10082;SDS011;5080;48.528;8.078;2023-07-31T01:48:13;10.80;;;10.30;;
10082;SDS011;5080;48.528;8.078;2023-07-31T01:50:40;10.40;;;10.00;;
10082;SDS011;5080;48.528;8.078;2023-07-31T01:53:06;10.53;;;10.13;;
10082;SDS011;5080;48.528;8.078;2023-07-31T01:55:33;10.47;;;10.07;;
10082;SDS011;5080;48.528;8.078;2023-07-31T01:58:00;10.63;;;10.23;;
10082;SDS011;5080;48.528;8.078;2023-07-31T02:00:28;11.43;;;11.03;;
10082;SDS011;5080;48.528;8.078;2023-07-31T02:02:55;10.17;;;9.87;;
10082;SDS011;5080;48.528;8.078;2023-07-31T02:05:22;10.07;;;9.70;;
10082;SDS011;5080;48.528;8.078;2023-07-31T02:07:49;10.73;;;10.33;;
10082;SDS011;5080;48.528;8.078;2023-07-31T02:10:15;10.87;;;10.37;;
10082;SDS011;5080;48.528;8.078;2023-07-31T02:12:42;11.30;;;10.90;;
10082;SDS011;5080;48.528;8.078;2023-07-31T02:15:09;11.60;;;11.20;;
10082;SDS011;5080;48.528;8.078;2023-07-31T02:17:37;13.53;;;13.03;;
10082;SDS011;5080;48.528;8.078;2023-07-31T02:20:05;11.07;;;10.67;;
10082;SDS011;5080;48.528;8.078;2023-07-31T02:22:32;10.90;;;10.50;;
10082;SDS011;5080;48.528;8.078;2023-07-31T02:24:59;11.37;;;10.97;;
10082;SDS011;5080;48.528;8.078;2023-07-31T02:27:26;10.23;;;9.83;;
10082;SDS011;5080;48.528;8.078;2023-07-31T02:29:53;11.40;;;10.90;;
10082;SDS011;5080;48.528;8.078;2023-07-31T02:32:20;10.88;;;10.48;;
10082;SDS011;5080;48.528;8.078;2023-07-31T02:34:48;10.23;;;9.83;;
10082;SDS011;5080;48.528;8.078;2023-07-31T02:37:15;10.97;;;10.57;;
10082;SDS011;5080;48.528;8.078;2023-07-31T02:39:42;10.80;;;10.40;;
10082;SDS011;5080;48.528;8.078;2023-07-31T02:42:09;11.53;;;11.13;;
10082;SDS011;5080;48.528;8.078;2023-07-31T02:44:35;11.03;;;10.63;;
10082;SDS011;5080;48.528;8.078;2023-07-31T02:47:03;11.10;;;10.70;;
10082;SDS011;5080;48.528;8.078;2023-07-31T02:49:29;10.93;;;10.53;;
10082;SDS011;5080;48.528;8.078;2023-07-31T02:51:58;11.43;;;11.03;;
10082;SDS011;5080;48.528;8.078;2023-07-31T02:54:25;11.50;;;11.03;;
10082;SDS011;5080;48.528;8.078;2023-07-31T02:56:51;11.70;;;11.30;;
10082;SDS011;5080;48.528;8.078;2023-07-31T02:59:19;16.03;;;15.43;;
10082;SDS011;5080;48.528;8.078;2023-07-31T03:01:46;11.03;;;10.53;;
10082;SDS011;5080;48.528;8.078;2023-07-31T03:04:13;11.30;;;10.90;;
10082;SDS011;5080;48.528;8.078;2023-07-31T03:06:40;13.53;;;13.03;;
10082;SDS011;5080;48.528;8.078;2023-07-31T03:09:08;12.00;;;11.50;;
10082;SDS011;5080;48.528;8.078;2023-07-31T03:11:35;11.53;;;11.13;;
10082;SDS011;5080;48.528;8.078;2023-07-31T03:14:02;12.03;;;11.63;;
10082;SDS011;5080;48.528;8.078;2023-07-31T03:16:29;12.50;;;12.03;;
10082;SDS011;5080;48.528;8.078;2023-07-31T03:18:55;12.18;;;11.77;;
10082;SDS011;5080;48.528;8.078;2023-07-31T03:21:22;11.73;;;11.33;;
10082;SDS011;5080;48.528;8.078;2023-07-31T03:23:49;11.20;;;10.73;;
10082;SDS011;5080;48.528;8.078;2023-07-31T03:26:17;11.23;;;10.83;;
10082;SDS011;5080;48.528;8.078;2023-07-31T03:28:44;10.90;;;10.50;;
10082;SDS011;5080;48.528;8.078;2023-07-31T03:31:11;11.73;;;11.33;;
10082;SDS011;5080;48.528;8.078;2023-07-31T03:33:38;10.90;;;10.50;;
10082;SDS011;5080;48.528;8.078;2023-07-31T03:36:05;10.97;;;10.57;;
10082;SDS011;5080;48.528;8.078;2023-07-31T03:38:33;11.20;;;10.80;;
10082;SDS011;5080;48.528;8.078;2023-07-31T03:40:59;11.00;;;10.60;;
10082;SDS011;5080;48.528;8.078;2023-07-31T03:43:28;11.17;;;10.77;;
10082;SDS011;5080;48.528;8.078;2023-07-31T03:45:55;12.00;;;11.50;;
10082;SDS011;5080;48.528;8.078;2023-07-31T03:48:22;11.43;;;11.03;;
10082;SDS011;5080;48.528;8.078;2023-07-31T03:50:49;11.63;;;11.23;;
10082;SDS011;5080;48.528;8.078;2023-07-31T03:53:16;11.40;;;11.00;;
10082;SDS011;5080;48.528;8.078;2023-07-31T03:55:42;10.80;;;10.40;;
10082;SDS011;5080;48.528;8.078;2023-07-31T03:58:09;10.93;;;10.53;;
10082;SDS011;5080;48.528;8.078;2023-07-31T04:00:37;12.07;;;11.67;;
10082;SDS011;5080;48.528;8.078;2023-07-31T04:03:05;10.83;;;10.43;;
10082;SDS011;5080;48.528;8.078;2023-07-31T04:05:32;10.93;;;10.53;;
10082;SDS011;5080;48.528;8.078;2023-07-31T04:07:59;10.70;;;10.30;;
10082;SDS011;5080;48.528;8.078;2023-07-31T04:10:26;11.07;;;10.67;;
10082;SDS011;5080;48.528;8.078;2023-07-31T04:12:53;11.30;;;10.80;;
10082;SDS011;5080;48.528;8.078;2023-07-31T04:15:20;11.03;;;10.63;;
10082;SDS011;5080;48.528;8.078;2023-07-31T04:17:48;11.07;;;10.65;;
10082;SDS011;5080;48.528;8.078;2023-07-31T04:20:15;11.03;;;10.63;;
10082;SDS011;5080;48.528;8.078;2023-07-31T04:22:41;10.83;;;10.43;;
10082;SDS011;5080;48.528;8.078;2023-07-31T04:25:08;11.00;;;10.60;;
10082;SDS011;5080;48.528;8.078;2023-07-31T04:27:35;11.43;;;11.03;;
10082;SDS011;5080;48.528;8.078;2023-07-31T04:30:02;12.03;;;11.63;;
10082;SDS011;5080;48.528;8.078;2023-07-31T04:32:29;12.00;;;11.53;;
10082;SDS011;5080;48.528;8.078;2023-07-31T04:34:57;10.87;;;10.47;;
10082;SDS011;5080;48.528;8.078;2023-07-31T04:37:24;12.30;;;11.80;;
10082;SDS011;5080;48.528;8.078;2023-07-31T04:39:51;11.63;;;11.23;;
10082;SDS011;5080;48.528;8.078;2023-07-31T04:42:18;11.10;;;10.70;;
10082;SDS011;5080;48.528;8.078;2023-07-31T04:44:45;12.20;;;11.80;;
10082;SDS011;5080;48.528;8.078;2023-07-31T04:47:11;11.53;;;11.13;;
10082;SDS011;5080;48.528;8.078;2023-07-31T04:49:38;10.90;;;10.50;;
10082;SDS011;5080;48.528;8.078;2023-07-31T04:52:07;11.00;;;10.60;;
10082;SDS011;5080;48.528;8.078;2023-07-31T04:54:33;12.10;;;11.60;;
10082;SDS011;5080;48.528;8.078;2023-07-31T04:57:00;12.47;;;12.03;;
10082;SDS011;5080;48.528;8.078;2023-07-31T04:59:27;11.40;;;11.00;;
10082;SDS011;5080;48.528;8.078;2023-07-31T05:01:54;11.60;;;11.20;;
10082;SDS011;5080;48.528;8.078;2023-07-31T05:04:21;11.50;;;11.10;;
10082;SDS011;5080;48.528;8.078;2023-07-31T05:06:48;12.10;;;11.52;;
10082;SDS011;5080;48.528;8.078;2023-07-31T05:09:16;10.80;;;10.40;;
10082;SDS011;5080;48.528;8.078;2023-07-31T05:11:43;12.60;;;12.20;;
10082;SDS011;5080;48.528;8.078;2023-07-31T05:14:10;12.47;;;12.00;;
10082;SDS011;5080;48.528;8.078;2023-07-31T05:16:37;12.83;;;12.37;;
10082;SDS011;5080;48.528;8.078;2023-07-31T05:19:04;12.23;;;11.83;;
10082;SDS011;5080;48.528;8.078;2023-07-31T05:21:30;12.40;;;12.00;;
10082;SDS011;5080;48.528;8.078;2023-07-31T05:23:57;13.50;;;13.00;;
10082;SDS011;5080;48.528;8.078;2023-07-31T05:26:25;16.17;;;15.57;;
10082;SDS011;5080;48.528;8.078;2023-07-31T05:28:52;16.37;;;15.77;;
10082;SDS011;5080;48.528;8.078;2023-07-31T05:31:19;13.27;;;12.80;;
10082;SDS011;5080;48.528;8.078;2023-07-31T05:33:47;14.17;;;13.67;;
10082;SDS011;5080;48.528;8.078;2023-07-31T05:36:15;15.53;;;14.93;;
10082;SDS011;5080;48.528;8.078;2023-07-31T05:38:41;13.93;;;13.43;;
10082;SDS011;5080;48.528;8.078;2023-07-31T05:41:09;13.47;;;12.97;;
10082;SDS011;5080;48.528;8.078;2023-07-31T05:43:39;15.27;;;14.67;;
10082;SDS011;5080;48.528;8.078;2023-07-31T05:46:06;14.97;;;14.47;;
10082;SDS011;5080;48.528;8.078;2023-07-31T05:48:34;17.97;;;17.33;;
10082;SDS011;5080;48.528;8.078;2023-07-31T05:51:01;18.60;;;17.93;;
10082;SDS011;5080;48.528;8.078;2023-07-31T05:53:27;19.23;;;18.53;;
10082;SDS011;5080;48.528;8.078;2023-07-31T05:55:54;19.90;;;19.20;;
10082;SDS011;5080;48.528;8.078;2023-07-31T05:58:21;21.50;;;20.70;;
10082;SDS011;5080;48.528;8.078;2023-07-31T06:00:50;22.97;;;22.17;;
10082;SDS011;5080;48.528;8.078;2023-07-31T06:03:17;25.23;;;24.33;;
10082;SDS011;5080;48.528;8.078;2023-07-31T06:05:44;25.13;;;24.23;;
10082;SDS011;5080;48.528;8.078;2023-07-31T06:08:11;22.17;;;21.37;;
10082;SDS011;5080;48.528;8.078;2023-07-31T06:10:38;23.20;;;22.40;;
10082;SDS011;5080;48.528;8.078;2023-07-31T06:13:05;22.37;;;21.57;;
10082;SDS011;5080;48.528;8.078;2023-07-31T06:15:31;24.57;;;23.67;;
10082;SDS011;5080;48.528;8.078;2023-07-31T06:18:00;25.80;;;24.83;;
10082;SDS011;5080;48.528;8.078;2023-07-31T06:20:28;22.40;;;21.60;;
10082;SDS011;5080;48.528;8.078;2023-07-31T06:22:55;25.30;;;24.40;;
10082;SDS011;5080;48.528;8.078;2023-07-31T06:25:22;26.23;;;25.33;;
10082;SDS011;5080;48.528;8.078;2023-07-31T06:27:48;23.97;;;23.13;;
10082;SDS011;5080;48.528;8.078;2023-07-31T06:30:15;21.40;;;20.60;;
10082;SDS011;5080;48.528;8.078;2023-07-31T06:32:42;20.30;;;19.60;;
10082;SDS011;5080;48.528;8.078;2023-07-31T06:35:10;22.67;;;21.87;;
10082;SDS011;5080;48.528;8.078;2023-07-31T06:37:37;25.03;;;24.13;;
10082;SDS011;5080;48.528;8.078;2023-07-31T06:40:05;27.33;;;26.33;;
10082;SDS011;5080;48.528;8.078;2023-07-31T06:42:34;27.33;;;26.33;;
10082;SDS011;5080;48.528;8.078;2023-07-31T06:45:01;20.10;;;19.40;;
10082;SDS011;5080;48.528;8.078;2023-07-31T06:47:28;18.70;;;18.00;;
10082;SDS011;5080;48.528;8.078;2023-07-31T06:49:55;22.17;;;21.27;;
10082;SDS011;5080;48.528;8.078;2023-07-31T06:52:23;16.57;;;15.97;;
10082;SDS011;5080;48.528;8.078;2023-07-31T06:55:00;17.65;;;17.05;;
10082;SDS011;5080;48.528;8.078;2023-07-31T06:57:28;18.57;;;17.90;;
10082;SDS011;5080;48.528;8.078;2023-07-31T06:59:54;20.03;;;19.33;;
10082;SDS011;5080;48.528;8.078;2023-07-31T07:02:21;20.23;;;19.50;;
10082;SDS011;5080;48.528;8.078;2023-07-31T07:04:48;19.13;;;18.43;;
10082;SDS011;5080;48.528;8.078;2023-07-31T07:07:16;19.63;;;18.93;;
10082;SDS011;5080;48.528;8.078;2023-07-31T07:09:44;22.67;;;21.87;;
10082;SDS011;5080;48.528;8.078;2023-07-31T07:12:11;21.03;;;20.23;;
10082;SDS011;5080;48.528;8.078;2023-07-31T07:14:38;20.30;;;19.60;;
10082;SDS011;5080;48.528;8.078;2023-07-31T07:17:05;17.43;;;16.83;;
10082;SDS011;5080;48.528;8.078;2023-07-31T07:19:32;16.92;;;16.33;;
10082;SDS011;5080;48.528;8.078;2023-07-31T07:21:59;15.13;;;14.57;;
10082;SDS011;5080;48.528;8.078;2023-07-31T07:24:27;18.87;;;18.07;;
10082;SDS011;5080;48.528;8.078;2023-07-31T07:26:55;16.30;;;15.70;;
10082;SDS011;5080;48.528;8.078;2023-07-31T07:29:22;14.00;;;13.50;;
10082;SDS011;5080;48.528;8.078;2023-07-31T07:31:49;15.33;;;14.83;;
10082;SDS011;5080;48.528;8.078;2023-07-31T07:34:15;16.20;;;15.60;;
10082;SDS011;5080;48.528;8.078;2023-07-31T07:36:42;16.67;;;16.10;;
10082;SDS011;5080;48.528;8.078;2023-07-31T07:39:09;15.80;;;15.27;;
10082;SDS011;5080;48.528;8.078;2023-07-31T07:41:37;15.70;;;15.10;;
10082;SDS011;5080;48.528;8.078;2023-07-31T07:44:05;19.23;;;18.53;;
10082;SDS011;5080;48.528;8.078;2023-07-31T07:46:32;16.57;;;15.97;;
10082;SDS011;5080;48.528;8.078;2023-07-31T07:48:59;14.07;;;13.57;;
10082;SDS011;5080;48.528;8.078;2023-07-31T07:51:26;15.07;;;14.50;;
10082;SDS011;5080;48.528;8.078;2023-07-31T07:53:55;14.50;;;14.00;;
10082;SDS011;5080;48.528;8.078;2023-07-31T07:56:23;15.80;;;15.20;;
10082;SDS011;5080;48.528;8.078;2023-07-31T07:58:51;12.93;;;12.43;;
10082;SDS011;5080;48.528;8.078;2023-07-31T08:01:20;16.75;;;16.05;;
10082;SDS011;5080;48.528;8.078;2023-07-31T08:03:47;16.10;;;15.50;;
10082;SDS011;5080;48.528;8.078;2023-07-31T08:06:14;10.90;;;10.50;;
10082;SDS011;5080;48.528;8.078;2023-07-31T08:08:41;10.53;;;10.13;;
10082;SDS011;5080;48.528;8.078;2023-07-31T08:11:08;9.25;;;8.95;;
10082;SDS011;5080;48.528;8.078;2023-07-31T08:13:35;10.60;;;10.23;;
10082;SDS011;5080;48.528;8.078;2023-07-31T08:16:03;8.60;;;8.30;;
10082;SDS011;5080;48.528;8.078;2023-07-31T08:18:31;8.25;;;7.95;;
10082;SDS011;5080;48.528;8.078;2023-07-31T08:20:58;11.10;;;10.70;;
10082;SDS011;5080;48.528;8.078;2023-07-31T08:23:25;10.00;;;9.60;;
10082;SDS011;5080;48.528;8.078;2023-07-31T08:25:52;8.73;;;8.43;;
10082;SDS011;5080;48.528;8.078;2023-07-31T08:28:18;10.97;;;10.47;;
10082;SDS011;5080;48.528;8.078;2023-07-31T08:30:45;9.18;;;8.88;;
10082;SDS011;5080;48.528;8.078;2023-07-31T08:33:12;11.05;;;10.65;;
10082;SDS011;5080;48.528;8.078;2023-07-31T08:35:40;10.13;;;9.82;;
10082;SDS011;5080;48.528;8.078;2023-07-31T08:38:07;10.67;;;10.33;;
10082;SDS011;5080;48.528;8.078;2023-07-31T08:40:35;10.63;;;10.23;;
10082;SDS011;5080;48.528;8.078;2023-07-31T08:43:02;10.80;;;10.40;;
10082;SDS011;5080;48.528;8.078;2023-07-31T08:45:30;9.43;;;9.13;;
10082;SDS011;5080;48.528;8.078;2023-07-31T08:47:58;9.40;;;9.10;;
10082;SDS011;5080;48.528;8.078;2023-07-31T08:50:25;8.63;;;8.32;;
10082;SDS011;5080;48.528;8.078;2023-07-31T08:52:54;10.37;;;9.97;;
10082;SDS011;5080;48.528;8.078;2023-07-31T08:55:21;10.52;;;10.13;;
10082;SDS011;5080;48.528;8.078;2023-07-31T08:57:50;9.40;;;9.10;;
10082;SDS011;5080;48.528;8.078;2023-07-31T09:00:19;10.45;;;10.05;;
10082;SDS011;5080;48.528;8.078;2023-07-31T09:02:51;9.73;;;9.40;;
10082;SDS011;5080;48.528;8.078;2023-07-31T09:05:21;9.90;;;9.50;;
10082;SDS011;5080;48.528;8.078;2023-07-31T09:07:49;10.60;;;10.20;;
10082;SDS011;5080;48.528;8.078;2023-07-31T09:10:18;10.10;;;9.80;;
10082;SDS011;5080;48.528;8.078;2023-07-31T09:12:45;10.15;;;9.75;;
10082;SDS011;5080;48.528;8.078;2023-07-31T09:15:13;10.07;;;9.73;;
10082;SDS011;5080;48.528;8.078;2023-07-31T09:17:40;9.48;;;9.18;;
10082;SDS011;5080;48.528;8.078;2023-07-31T09:20:12;10.63;;;10.23;;
10082;SDS011;5080;48.528;8.078;2023-07-31T09:22:40;9.82;;;9.52;;
10082;SDS011;5080;48.528;8.078;2023-07-31T09:25:13;9.95;;;9.60;;
10082;SDS011;5080;48.528;8.078;2023-07-31T09:27:50;9.95;;;9.65;;
10082;SDS011;5080;48.528;8.078;2023-07-31T09:30:18;10.75;;;10.35;;
10082;SDS011;5080;48.528;8.078;2023-07-31T09:32:45;9.20;;;8.90;;
10082;SDS011;5080;48.528;8.078;2023-07-31T09:35:13;8.73;;;8.43;;
10082;SDS011;5080;48.528;8.078;2023-07-31T09:37:48;8.60;;;8.30;;
10082;SDS011;5080;48.528;8.078;2023-07-31T09:40:26;9.00;;;8.70;;
10082;SDS011;5080;48.528;8.078;2023-07-31T09:42:57;9.30;;;9.00;;
10082;SDS011;5080;48.528;8.078;2023-07-31T09:45:24;9.60;;;9.20;;
10082;SDS011;5080;48.528;8.078;2023-07-31T09:47:52;9.10;;;8.80;;
10082;SDS011;5080;48.528;8.078;2023-07-31T09:50:20;9.00;;;8.70;;
10082;SDS011;5080;48.528;8.078;2023-07-31T09:52:47;9.35;;;9.05;;
10082;SDS011;5080;48.528;8.078;2023-07-31T09:55:15;8.68;;;8.32;;
10082;SDS011;5080;48.528;8.078;2023-07-31T09:57:42;8.77;;;8.48;;
10082;SDS011;5080;48.528;8.078;2023-07-31T10:00:13;8.93;;;8.63;;
10082;SDS011;5080;48.528;8.078;2023-07-31T10:02:41;9.02;;;8.73;;
10082;SDS011;5080;48.528;8.078;2023-07-31T10:05:12;9.80;;;9.32;;
10082;SDS011;5080;48.528;8.078;2023-07-31T10:07:41;9.07;;;8.77;;
10082;SDS011;5080;48.528;8.078;2023-07-31T10:10:11;8.75;;;8.45;;
10082;SDS011;5080;48.528;8.078;2023-07-31T10:12:41;9.50;;;9.10;;
10082;SDS011;5080;48.528;8.078;2023-07-31T10:15:10;8.88;;;8.55;;
10082;SDS011;5080;48.528;8.078;2023-07-31T10:17:39;9.02;;;8.73;;
10082;SDS011;5080;48.528;8.078;2023-07-31T10:20:06;9.23;;;8.82;;
10082;SDS011;5080;48.528;8.078;2023-07-31T10:22:35;9.20;;;8.90;;
10082;SDS011;5080;48.528;8.078;2023-07-31T10:25:02;8.80;;;8.50;;
10082;SDS011;5080;48.528;8.078;2023-07-31T10:27:30;10.50;;;10.10;;
10082;SDS011;5080;48.528;8.078;2023-07-31T10:29:57;9.18;;;8.88;;
10082;SDS011;5080;48.528;8.078;2023-07-31T10:32:25;8.70;;;8.40;;
10082;SDS011;5080;48.528;8.078;2023-07-31T10:34:55;8.77;;;8.48;;
10082;SDS011;5080;48.528;8.078;2023-07-31T10:37:24;31.02;;;29.55;;
10082;SDS011;5080;48.528;8.078;2023-07-31T10:39:55;9.02;;;8.73;;
10082;SDS011;5080;48.528;8.078;2023-07-31T10:42:30;9.10;;;8.80;;
10082;SDS011;5080;48.528;8.078;2023-07-31T10:44:59;8.88;;;8.57;;
10082;SDS011;5080;48.528;8.078;2023-07-31T10:47:28;9.10;;;8.80;;
10082;SDS011;5080;48.528;8.078;2023-07-31T10:50:16;10.35;;;9.95;;
10082;SDS011;5080;48.528;8.078;2023-07-31T10:52:48;8.50;;;8.20;;
10082;SDS011;5080;48.528;8.078;2023-07-31T10:55:17;8.68;;;8.38;;
10082;SDS011;5080;48.528;8.078;2023-07-31T10:57:50;8.27;;;7.97;;
10082;SDS011;5080;48.528;8.078;2023-07-31T11:00:22;8.50;;;8.20;;
10082;SDS011;5080;48.528;8.078;2023-07-31T11:03:01;8.30;;;8.00;;
10082;SDS011;5080;48.528;8.078;2023-07-31T11:05:47;8.73;;;8.43;;
10082;SDS011;5080;48.528;8.078;2023-07-31T11:08:19;8.27;;;7.97;;
10082;SDS011;5080;48.528;8.078;2023-07-31T11:10:48;9.20;;;8.90;;
10082;SDS011;5080;48.528;8.078;2023-07-31T11:13:17;9.18;;;8.88;;
10082;SDS011;5080;48.528;8.078;2023-07-31T11:15:44;9.23;;;8.93;;
10082;SDS011;5080;48.528;8.078;2023-07-31T11:18:11;8.95;;;8.65;;
10082;SDS011;5080;48.528;8.078;2023-07-31T11:20:38;8.68;;;8.38;;
10082;SDS011;5080;48.528;8.078;2023-07-31T11:23:08;8.52;;;8.23;;
10082;SDS011;5080;48.528;8.078;2023-07-31T11:25:36;8.75;;;8.45;;
10082;SDS011;5080;48.528;8.078;2023-07-31T11:28:05;8.70;;;8.38;;
10082;SDS011;5080;48.528;8.078;2023-07-31T11:30:34;8.50;;;8.20;;
10082;SDS011;5080;48.528;8.078;2023-07-31T11:33:01;9.07;;;8.77;;
10082;SDS011;5080;48.528;8.078;2023-07-31T11:35:29;8.30;;;8.00;;
10082;SDS011;5080;48.528;8.078;2023-07-31T11:37:57;9.18;;;8.77;;
10082;SDS011;5080;48.528;8.078;2023-07-31T11:40:26;9.00;;;8.70;;
10082;SDS011;5080;48.528;8.078;2023-07-31T11:42:55;8.88;;;8.57;;
10082;SDS011;5080;48.528;8.078;2023-07-31T11:45:24;9.40;;;9.10;;
10082;SDS011;5080;48.528;8.078;2023-07-31T11:47:52;9.30;;;8.95;;
10082;SDS011;5080;48.528;8.078;2023-07-31T11:50:20;9.60;;;9.30;;
10082;SDS011;5080;48.528;8.078;2023-07-31T11:52:50;10.15;;;9.80;;
10082;SDS011;5080;48.528;8.078;2023-07-31T11:55:19;10.35;;;9.95;;
10082;SDS011;5080;48.528;8.078;2023-07-31T11:57:47;9.55;;;9.25;;
10082;SDS011;5080;48.528;8.078;2023-07-31T12:00:15;9.27;;;8.90;;
10082;SDS011;5080;48.528;8.078;2023-07-31T12:02:42;9.68;;;9.30;;
10082;SDS011;5080;48.528;8.078;2023-07-31T12:05:10;10.00;;;9.60;;
10082;SDS011;5080;48.528;8.078;2023-07-31T12:07:44;10.57;;;10.18;;
10082;SDS011;5080;48.528;8.078;2023-07-31T12:10:22;9.65;;;9.35;;
10082;SDS011;5080;48.528;8.078;2023-07-31T12:12:56;9.52;;;9.23;;
10082;SDS011;5080;48.528;8.078;2023-07-31T12:15:28;9.55;;;9.15;;
10082;SDS011;5080;48.528;8.078;2023-07-31T12:17:59;9.30;;;9.00;;
10082;SDS011;5080;48.528;8.078;2023-07-31T12:20:26;10.70;;;10.30;;
10082;SDS011;5080;48.528;8.078;2023-07-31T12:22:55;10.27;;;9.93;;
10082;SDS011;5080;48.528;8.078;2023-07-31T12:25:23;10.45;;;10.05;;
10082;SDS011;5080;48.528;8.078;2023-07-31T12:27:54;10.65;;;10.25;;
10082;SDS011;5080;48.528;8.078;2023-07-31T12:30:29;10.55;;;10.15;;
10082;SDS011;5080;48.528;8.078;2023-07-31T12:32:57;10.40;;;10.00;;
10082;SDS011;5080;48.528;8.078;2023-07-31T12:35:34;10.23;;;9.90;;
10082;SDS011;5080;48.528;8.078;2023-07-31T12:38:01;10.13;;;9.73;;
10082;SDS011;5080;48.528;8.078;2023-07-31T12:40:28;10.50;;;10.10;;
10082;SDS011;5080;48.528;8.078;2023-07-31T12:42:56;9.63;;;9.32;;
10082;SDS011;5080;48.528;8.078;2023-07-31T12:45:23;9.60;;;9.30;;
10082;SDS011;5080;48.528;8.078;2023-07-31T12:47:51;9.43;;;9.13;;
10082;SDS011;5080;48.528;8.078;2023-07-31T12:50:18;10.23;;;9.82;;
10082;SDS011;5080;48.528;8.078;2023-07-31T12:52:45;9.88;;;9.55;;
10082;SDS011;5080;48.528;8.078;2023-07-31T12:55:11;10.10;;;9.77;;
10082;SDS011;5080;48.528;8.078;2023-07-31T12:57:39;10.18;;;9.77;;
10082;SDS011;5080;48.528;8.078;2023-07-31T13:00:07;9.65;;;9.35;;
10082;SDS011;5080;48.528;8.078;2023-07-31T13:02:34;9.43;;;9.13;;
10082;SDS011;5080;48.528;8.078;2023-07-31T13:05:02;8.80;;;8.50;;
10082;SDS011;5080;48.528;8.078;2023-07-31T13:07:30;9.32;;;8.98;;
10082;SDS011;5080;48.528;8.078;2023-07-31T13:09:57;9.35;;;9.05;;
10082;SDS011;5080;48.528;8.078;2023-07-31T13:12:24;9.18;;;8.88;;
10082;SDS011;5080;48.528;8.078;2023-07-31T13:14:50;9.45;;;9.15;;
10082;SDS011;5080;48.528;8.078;2023-07-31T13:17:17;9.38;;;9.07;;
10082;SDS011;5080;48.528;8.078;2023-07-31T13:19:45;9.70;;;9.40;;
10082;SDS011;5080;48.528;8.078;2023-07-31T13:22:13;9.15;;;8.85;;
10082;SDS011;5080;48.528;8.078;2023-07-31T13:24:40;10.40;;;10.00;;
10082;SDS011;5080;48.528;8.078;2023-07-31T13:27:07;9.98;;;9.57;;
10082;SDS011;5080;48.528;8.078;2023-07-31T13:29:34;9.50;;;9.20;;
10082;SDS011;5080;48.528;8.078;2023-07-31T13:32:00;10.30;;;9.90;;
10082;SDS011;5080;48.528;8.078;2023-07-31T13:34:27;9.65;;;9.35;;
10082;SDS011;5080;48.528;8.078;2023-07-31T13:36:54;9.27;;;8.98;;
10082;SDS011;5080;48.528;8.078;2023-07-31T13:39:22;9.23;;;8.93;;
10082;SDS011;5080;48.528;8.078;2023-07-31T13:41:49;8.95;;;8.65;;
10082;SDS011;5080;48.528;8.078;2023-07-31T13:44:16;9.35;;;9.02;;
10082;SDS011;5080;48.528;8.078;2023-07-31T13:46:43;10.07;;;9.70;;
10082;SDS011;5080;48.528;8.078;2023-07-31T13:49:10;9.43;;;9.13;;
10082;SDS011;5080;48.528;8.078;2023-07-31T13:51:36;9.07;;;8.77;;
10082;SDS011;5080;48.528;8.078;2023-07-31T13:54:04;8.95;;;8.65;;
10082;SDS011;5080;48.528;8.078;2023-07-31T13:56:33;9.73;;;9.43;;
10082;SDS011;5080;48.528;8.078;2023-07-31T13:59:00;9.25;;;8.95;;
10082;SDS011;5080;48.528;8.078;2023-07-31T14:01:27;9.50;;;9.20;;
10082;SDS011;5080;48.528;8.078;2023-07-31T14:03:54;9.50;;;9.20;;
10082;SDS011;5080;48.528;8.078;2023-07-31T14:06:21;9.65;;;9.25;;
10082;SDS011;5080;48.528;8.078;2023-07-31T14:08:48;9.32;;;9.02;;
10082;SDS011;5080;48.528;8.078;2023-07-31T14:11:14;8.95;;;8.65;;
10082;SDS011;5080;48.528;8.078;2023-07-31T14:13:43;9.55;;;9.25;;
10082;SDS011;5080;48.528;8.078;2023-07-31T14:16:09;9.80;;;9.50;;
10082;SDS011;5080;48.528;8.078;2023-07-31T14:18:36;9.90;;;9.55;;
10082;SDS011;5080;48.528;8.078;2023-07-31T14:21:03;9.30;;;9.00;;
10082;SDS011;5080;48.528;8.078;2023-07-31T14:23:30;8.88;;;8.57;;
10082;SDS011;5080;48.528;8.078;2023-07-31T14:25:57;9.05;;;8.75;;
10082;SDS011;5080;48.528;8.078;2023-07-31T14:28:23;9.30;;;9.00;;
10082;SDS011;5080;48.528;8.078;2023-07-31T14:30:52;8.63;;;8.32;;
10082;SDS011;5080;48.528;8.078;2023-07-31T14:33:18;8.43;;;8.13;;
10082;SDS011;5080;48.528;8.078;2023-07-31T14:35:45;8.82;;;8.52;;
10082;SDS011;5080;48.528;8.078;2023-07-31T14:38:12;8.57;;;8.27;;
10082;SDS011;5080;48.528;8.078;2023-07-31T14:40:39;8.70;;;8.40;;
10082;SDS011;5080;48.528;8.078;2023-07-31T14:43:06;8.90;;;8.50;;
10082;SDS011;5080;48.528;8.078;2023-07-31T14:45:32;8.90;;;8.60;;
10082;SDS011;5080;48.528;8.078;2023-07-31T14:48:01;8.88;;;8.57;;
10082;SDS011;5080;48.528;8.078;2023-07-31T14:50:28;8.90;;;8.60;;
10082;SDS011;5080;48.528;8.078;2023-07-31T14:52:54;9.02;;;8.68;;